Time;durP1;ratioP1;P1;durP2;ratioP2;P2;SDS_P1;SDS_P2;PMS_P1;PMS_P2;Temp;Humidity;BMP_temperature;BMP_pressure;BME280_temperature;BME280_humidity;BME280_pressure;Samples;Min_cycle;Max_cycle;Signal;HPM_P1;HPM_P2
2022/07/22 00:01:37;;;;;;;;;;;24.50;67.80;;;;;;5045568;28;20392;-96
2022/07/22 00:04:03;;;;;;;;;;;24.50;68.00;;;;;;5052172;28;19917;-96
2022/07/22 00:06:28;;;;;;;;;;;24.50;68.00;;;;;;5045814;28;19908;-96
2022/07/22 00:08:54;;;;;;;;;;;24.40;67.80;;;;;;5045874;28;19932;-96
2022/07/22 00:11:20;;;;;;;;;;;24.40;67.90;;;;;;5044815;28;19912;-96
2022/07/22 00:13:46;;;;;;;;;;;24.40;67.90;;;;;;5024151;28;19918;-96
2022/07/22 00:16:11;;;;;;;;;;;24.30;67.90;;;;;;5045045;28;20004;-96
2022/07/22 00:18:37;;;;;;;;;;;24.30;68.00;;;;;;5026700;28;19917;-96
2022/07/22 00:21:36;;;;;;;;;;;;;;;;;;;;;
2022/07/22 00:24:02;;;;;;;;;;;24.20;66.90;;;;;;5052228;28;20007;-94
2022/07/22 00:26:27;;;;;;;;;;;24.10;66.70;;;;;;5042028;28;19952;-94
2022/07/22 00:28:53;;;;;;;;;;;24.00;66.70;;;;;;5041547;28;19939;-94
2022/07/22 00:31:19;;;;;;;;;;;24.00;66.80;;;;;;5041280;28;19971;-95
2022/07/22 00:33:44;;;;;;;;;;;23.90;66.90;;;;;;5042478;28;19920;-94
2022/07/22 00:36:10;;;;;;;;;;;23.80;66.80;;;;;;5044968;28;19948;-95
2022/07/22 00:38:35;;;;;;;;;;;23.80;66.80;;;;;;5056915;28;19900;-92
2022/07/22 00:41:02;;;;;;;;;;;23.80;66.90;;;;;;5056556;28;20377;-93
2022/07/22 00:43:47;;;;;;;;;;;23.80;66.90;;;;;;5056212;28;19941;-93
2022/07/22 00:46:13;;;;;;;;;;;23.80;66.90;;;;;;5051151;28;19971;-95
2022/07/22 00:48:38;;;;;;;;;;;23.70;66.70;;;;;;5042689;28;19908;-95
2022/07/22 00:51:04;;;;;;;;;;;23.70;66.70;;;;;;5039666;28;19928;-95
2022/07/22 00:53:30;;;;;;;;;;;23.70;66.70;;;;;;5040674;28;19944;-94
2022/07/22 00:55:55;;;;;;;;;;;23.70;66.70;;;;;;5039822;28;20288;-93
2022/07/22 00:58:21;;;;;;;;;;;23.60;66.50;;;;;;5039961;28;20289;-94
2022/07/22 01:00:47;;;;;;;;;;;23.50;66.50;;;;;;5036469;28;19913;-93
2022/07/22 01:03:13;;;;;;;;;;;23.50;66.70;;;;;;5037458;28;19928;-94
2022/07/22 01:05:39;;;;;;;;;;;23.50;66.90;;;;;;5039937;28;19979;-94
2022/07/22 01:08:05;;;;;;;;;;;23.50;67.00;;;;;;5040797;28;19921;-95
2022/07/22 01:10:31;;;;;;;;;;;23.50;67.10;;;;;;5058124;28;20012;-94
2022/07/22 01:12:56;;;;;;;;;;;23.50;67.10;;;;;;5037651;28;19952;-94
2022/07/22 01:15:22;;;;;;;;;;;23.50;67.10;;;;;;5039587;28;19913;-94
2022/07/22 01:17:47;;;;;;;;;;;23.50;67.20;;;;;;5040332;28;20368;-94
2022/07/22 01:20:13;;;;;;;;;;;23.50;67.10;;;;;;5040306;28;19917;-95
2022/07/22 01:22:38;;;;;;;;;;;23.40;67.20;;;;;;5040419;28;19923;-94
2022/07/22 01:25:04;;;;;;;;;;;23.40;67.10;;;;;;5059208;28;19913;-94
2022/07/22 01:27:30;;;;;;;;;;;23.30;67.00;;;;;;5040484;28;19913;-94
2022/07/22 01:29:55;;;;;;;;;;;23.30;66.90;;;;;;5039458;28;20461;-95
2022/07/22 01:32:21;;;;;;;;;;;23.30;66.90;;;;;;5040625;28;19967;-93
2022/07/22 01:34:46;;;;;;;;;;;23.30;67.00;;;;;;5039679;28;20334;-95
2022/07/22 01:37:12;;;;;;;;;;;23.40;66.80;;;;;;5023382;28;19924;-94
2022/07/22 01:39:39;;;;;;;;;;;23.30;66.80;;;;;;5042712;28;19916;-94
2022/07/22 01:42:04;;;;;;;;;;;23.30;66.80;;;;;;5039582;28;19928;-95
2022/07/22 01:44:30;;;;;;;;;;;23.30;66.60;;;;;;5039495;28;19909;-93
2022/07/22 01:46:58;;;;;;;;;;;23.30;66.70;;;;;;5039695;28;19966;-93
2022/07/22 01:49:24;;;;;;;;;;;23.30;66.30;;;;;;5022013;28;20535;-93
2022/07/22 01:51:49;;;;;;;;;;;23.20;66.50;;;;;;5019193;28;20284;-93
2022/07/22 01:54:15;;;;;;;;;;;23.20;66.60;;;;;;5036858;28;19952;-94
2022/07/22 01:56:40;;;;;;;;;;;23.20;66.70;;;;;;5038133;28;19967;-95
2022/07/22 01:59:07;;;;;;;;;;;23.10;66.70;;;;;;5038921;28;19967;-93
2022/07/22 02:01:32;;;;;;;;;;;23.10;66.50;;;;;;5039386;28;20288;-93
2022/07/22 02:03:58;;;;;;;;;;;23.00;66.70;;;;;;5039762;28;20029;-94
2022/07/22 02:06:24;;;;;;;;;;;23.00;66.70;;;;;;5038178;28;19917;-93
2022/07/22 02:08:49;;;;;;;;;;;23.00;66.80;;;;;;5038848;28;20311;-93
2022/07/22 02:11:14;;;;;;;;;;;22.90;66.80;;;;;;5041544;28;19968;-93
2022/07/22 02:13:40;;;;;;;;;;;22.90;67.00;;;;;;5038943;28;19916;-93
2022/07/22 02:16:05;;;;;;;;;;;22.90;67.00;;;;;;5039041;28;19916;-93
2022/07/22 02:18:31;;;;;;;;;;;22.80;66.90;;;;;;5035124;28;19940;-94
2022/07/22 02:20:56;;;;;;;;;;;22.80;67.00;;;;;;5040376;28;19909;-95
2022/07/22 02:23:22;;;;;;;;;;;22.80;66.90;;;;;;5039451;28;19913;-93
2022/07/22 02:25:47;;;;;;;;;;;22.80;67.00;;;;;;5010356;28;20016;-94
2022/07/22 02:28:16;;;;;;;;;;;22.80;66.90;;;;;;5020746;28;20403;-93
2022/07/22 02:30:42;;;;;;;;;;;22.80;66.70;;;;;;5028598;28;20015;-94
2022/07/22 02:33:07;;;;;;;;;;;22.70;66.90;;;;;;5056627;28;19998;-93
2022/07/22 02:35:33;;;;;;;;;;;22.70;66.90;;;;;;5040156;28;19970;-93
2022/07/22 02:37:58;;;;;;;;;;;22.70;67.10;;;;;;5057072;28;19917;-93
2022/07/22 02:40:24;;;;;;;;;;;22.80;67.00;;;;;;5057575;28;19955;-93
2022/07/22 02:42:49;;;;;;;;;;;22.80;67.00;;;;;;5040518;28;19967;-93
2022/07/22 02:45:15;;;;;;;;;;;22.80;66.90;;;;;;5038873;28;19942;-93
2022/07/22 02:47:51;;;;;;;;;;;22.80;66.60;;;;;;5038852;28;19917;-94
2022/07/22 02:50:16;;;;;;;;;;;22.80;66.60;;;;;;5039229;28;19912;-94
2022/07/22 02:52:42;;;;;;;;;;;22.70;66.70;;;;;;5040201;28;20266;-94
2022/07/22 02:55:08;;;;;;;;;;;22.70;66.70;;;;;;5045469;28;19936;-94
2022/07/22 02:57:34;;;;;;;;;;;22.70;66.30;;;;;;5041260;28;19918;-95
2022/07/22 02:59:59;;;;;;;;;;;22.60;66.60;;;;;;5058956;28;19909;-94
2022/07/22 03:02:25;;;;;;;;;;;22.60;66.40;;;;;;5043678;28;20352;-93
2022/07/22 03:04:50;;;;;;;;;;;22.60;66.60;;;;;;5038849;28;20008;-93
2022/07/22 03:07:16;;;;;;;;;;;22.50;66.50;;;;;;5041459;28;19913;-92
2022/07/22 03:09:41;;;;;;;;;;;22.60;66.50;;;;;;5041822;28;20336;-92
2022/07/22 03:12:07;;;;;;;;;;;22.60;66.60;;;;;;5041547;28;19920;-93
2022/07/22 03:14:33;;;;;;;;;;;22.50;66.50;;;;;;5017415;28;19917;-93
2022/07/22 03:16:58;;;;;;;;;;;22.50;66.60;;;;;;5041709;28;19909;-94
2022/07/22 03:19:24;;;;;;;;;;;22.50;66.60;;;;;;5041398;28;20062;-93
2022/07/22 03:21:49;;;;;;;;;;;22.60;66.60;;;;;;5060619;28;19940;-93
2022/07/22 03:24:15;;;;;;;;;;;22.60;66.70;;;;;;5025690;28;20035;-93
2022/07/22 03:26:40;;;;;;;;;;;22.70;66.60;;;;;;5042279;28;19913;-93
2022/07/22 03:29:06;;;;;;;;;;;22.60;66.60;;;;;;5042321;28;19921;-93
2022/07/22 03:31:31;;;;;;;;;;;22.70;66.50;;;;;;5060017;28;19916;-92
2022/07/22 03:33:57;;;;;;;;;;;22.70;66.50;;;;;;5060455;28;20555;-93
2022/07/22 03:36:22;;;;;;;;;;;22.70;66.40;;;;;;5042506;28;19916;-93
2022/07/22 03:38:48;;;;;;;;;;;22.70;66.40;;;;;;5042929;28;19921;-92
2022/07/22 03:41:13;;;;;;;;;;;22.80;66.40;;;;;;5040664;28;19913;-94
2022/07/22 03:43:39;;;;;;;;;;;22.80;66.40;;;;;;5060612;28;19924;-94
2022/07/22 03:46:04;;;;;;;;;;;22.80;66.40;;;;;;5059154;28;19948;-95
2022/07/22 03:48:29;;;;;;;;;;;22.80;66.40;;;;;;5043551;28;19952;-95
2022/07/22 03:50:55;;;;;;;;;;;22.80;66.40;;;;;;5042827;28;19916;-95
2022/07/22 03:53:21;;;;;;;;;;;22.80;66.40;;;;;;5036300;28;19913;-95
2022/07/22 03:55:46;;;;;;;;;;;22.70;66.30;;;;;;5042723;28;19920;-93
2022/07/22 03:58:12;;;;;;;;;;;22.80;66.30;;;;;;5044274;28;19925;-96
2022/07/22 04:00:37;;;;;;;;;;;22.80;66.40;;;;;;5043830;28;19913;-96
2022/07/22 04:03:03;;;;;;;;;;;22.80;66.40;;;;;;5042862;28;19897;-94
2022/07/22 04:05:28;;;;;;;;;;;22.80;66.30;;;;;;5042962;28;20061;-93
2022/07/22 04:07:54;;;;;;;;;;;22.80;66.30;;;;;;5043037;28;19919;-93
2022/07/22 04:10:19;;;;;;;;;;;22.80;66.40;;;;;;5043001;28;20311;-94
2022/07/22 04:12:45;;;;;;;;;;;22.90;66.40;;;;;;5043375;28;19924;-93
2022/07/22 04:15:10;;;;;;;;;;;22.80;66.20;;;;;;5043162;28;20357;-94
2022/07/22 04:17:36;;;;;;;;;;;22.90;66.30;;;;;;5038844;28;19963;-95
2022/07/22 04:20:02;;;;;;;;;;;22.90;66.30;;;;;;5038345;28;19917;-94
2022/07/22 04:22:27;;;;;;;;;;;23.00;66.30;;;;;;5042176;28;19913;-94
2022/07/22 04:24:53;;;;;;;;;;;22.90;66.30;;;;;;5059683;28;19917;-94
2022/07/22 04:27:19;;;;;;;;;;;23.00;66.20;;;;;;5058787;28;19897;-94
2022/07/22 04:29:44;;;;;;;;;;;23.00;66.20;;;;;;5042357;28;19928;-94
2022/07/22 04:32:09;;;;;;;;;;;23.00;66.10;;;;;;5040480;28;19925;-94
2022/07/22 04:34:35;;;;;;;;;;;23.00;66.10;;;;;;5041044;28;19935;-95
2022/07/22 04:37:01;;;;;;;;;;;23.00;66.30;;;;;;5042814;28;19916;-93
2022/07/22 04:39:26;;;;;;;;;;;23.00;66.20;;;;;;5022702;28;20274;-93
2022/07/22 04:41:56;;;;;;;;;;;23.00;66.20;;;;;;5143053;23;19979;-90
2022/07/22 04:44:27;;;;;;;;;;;23.00;66.20;;;;;;5038338;28;19956;-90
2022/07/22 04:46:54;;;;;;;;;;;23.00;66.10;;;;;;5031214;28;19917;-90
2022/07/22 04:49:25;;;;;;;;;;;23.00;66.00;;;;;;5043223;28;19995;-90
2022/07/22 04:51:52;;;;;;;;;;;23.00;66.00;;;;;;5036158;28;19931;-90
2022/07/22 04:54:20;;;;;;;;;;;22.90;66.10;;;;;;5037428;28;19913;-90
2022/07/22 04:56:50;;;;;;;;;;;23.00;66.10;;;;;;5037138;28;20020;-90
2022/07/22 04:59:19;;;;;;;;;;;23.00;66.00;;;;;;5039457;28;20028;-90
2022/07/22 05:01:46;;;;;;;;;;;22.90;66.10;;;;;;5038621;28;19924;-90
2022/07/22 05:04:13;;;;;;;;;;;22.90;66.10;;;;;;5036438;28;19931;-89
2022/07/22 05:09:17;;;;;;;;;;;23.00;66.20;;;;;;5062048;23;19925;-89
2022/07/22 05:11:50;;;;;;;;;;;23.00;66.20;;;;;;5027817;28;19976;-90
2022/07/22 05:14:23;;;;;;;;;;;23.10;66.30;;;;;;5009330;28;19921;-90
2022/07/22 05:16:50;;;;;;;;;;;23.10;66.30;;;;;;5014803;28;19921;-90
2022/07/22 05:19:23;;;;;;;;;;;23.10;66.30;;;;;;5019765;28;19917;-89
2022/07/22 05:21:53;;;;;;;;;;;23.20;66.20;;;;;;5036067;28;20105;-89
2022/07/22 05:24:22;;;;;;;;;;;23.20;66.20;;;;;;5021371;28;19901;-90
2022/07/22 05:26:51;;;;;;;;;;;23.20;66.20;;;;;;5014974;28;20347;-89
2022/07/22 05:29:20;;;;;;;;;;;23.30;66.20;;;;;;5026197;28;19928;-89
2022/07/22 05:31:46;;;;;;;;;;;23.30;66.10;;;;;;5015108;28;19960;-89
2022/07/22 05:34:13;;;;;;;;;;;23.30;66.20;;;;;;5017755;28;19917;-89
2022/07/22 05:36:39;;;;;;;;;;;23.40;66.20;;;;;;5014461;28;19913;-89
2022/07/22 05:39:06;;;;;;;;;;;23.40;66.20;;;;;;5015378;28;19920;-90
2022/07/22 05:41:39;;;;;;;;;;;23.50;66.10;;;;;;5015679;28;19917;-89
2022/07/22 05:44:06;;;;;;;;;;;23.40;66.00;;;;;;5013126;28;19917;-89
2022/07/22 05:46:34;;;;;;;;;;;23.50;66.10;;;;;;5018985;28;20147;-89
2022/07/22 05:48:59;;;;;;;;;;;23.60;66.00;;;;;;5017204;28;19921;-89
2022/07/22 05:51:25;;;;;;;;;;;23.70;65.90;;;;;;5032117;28;20265;-89
2022/07/22 05:53:51;;;;;;;;;;;23.60;65.90;;;;;;5015510;28;19936;-89
2022/07/22 05:56:17;;;;;;;;;;;23.60;65.90;;;;;;5009876;28;19913;-90
2022/07/22 05:58:43;;;;;;;;;;;23.70;65.60;;;;;;4999041;28;19940;-89
2022/07/22 06:01:10;;;;;;;;;;;23.70;65.60;;;;;;5012494;28;19913;-89
2022/07/22 06:03:39;;;;;;;;;;;23.70;65.60;;;;;;5019616;28;19921;-89
2022/07/22 06:06:11;;;;;;;;;;;23.70;65.60;;;;;;5015928;28;19913;-89
2022/07/22 06:08:37;;;;;;;;;;;23.70;65.50;;;;;;5014514;28;20399;-90
2022/07/22 06:11:04;;;;;;;;;;;23.70;65.40;;;;;;5014436;28;19925;-90
2022/07/22 06:13:30;;;;;;;;;;;23.60;65.40;;;;;;5011650;28;19924;-90
2022/07/22 06:15:56;;;;;;;;;;;23.60;65.30;;;;;;5013435;28;19913;-90
2022/07/22 06:18:23;;;;;;;;;;;23.60;65.20;;;;;;5019912;28;19921;-90
2022/07/22 06:20:53;;;;;;;;;;;23.60;65.30;;;;;;5029978;28;19996;-90
2022/07/22 06:23:26;;;;;;;;;;;23.60;65.20;;;;;;5011071;28;19965;-91
2022/07/22 06:25:55;;;;;;;;;;;23.60;65.40;;;;;;5040827;23;19925;-91
2022/07/22 06:28:29;;;;;;;;;;;23.60;65.50;;;;;;5029834;28;19959;-91
2022/07/22 06:31:02;;;;;;;;;;;23.70;65.50;;;;;;5012570;28;20380;-90
2022/07/22 06:33:38;;;;;;;;;;;23.70;65.60;;;;;;5015112;28;19936;-90
2022/07/22 06:36:11;;;;;;;;;;;23.70;65.60;;;;;;5000954;28;19925;-89
2022/07/22 06:38:43;;;;;;;;;;;23.80;65.60;;;;;;4989833;28;20700;-89
2022/07/22 06:41:20;;;;;;;;;;;23.80;65.80;;;;;;5043047;23;19930;-89
2022/07/22 06:46:29;;;;;;;;;;;24.10;66.00;;;;;;5127546;23;19925;-89
2022/07/22 06:51:33;;;;;;;;;;;24.40;65.90;;;;;;5188322;23;19925;-93
2022/07/22 06:54:18;;;;;;;;;;;24.50;65.90;;;;;;4975916;28;20355;-92
2022/07/22 06:56:46;;;;;;;;;;;24.60;65.70;;;;;;4958995;28;19965;-92
2022/07/22 06:59:12;;;;;;;;;;;24.60;65.70;;;;;;4960788;28;19921;-93
2022/07/22 07:01:54;;;;;;;;;;;24.70;65.70;;;;;;4992733;28;19918;-93
2022/07/22 07:04:19;;;;;;;;;;;24.70;65.60;;;;;;4980026;28;19914;-93
2022/07/22 07:09:30;;;;;;;;;;;24.80;65.50;;;;;;5022224;28;19917;-93
2022/07/22 07:11:55;;;;;;;;;;;24.80;65.50;;;;;;5020071;28;19925;-92
2022/07/22 07:14:23;;;;;;;;;;;24.90;65.30;;;;;;5020099;28;19913;-93
2022/07/22 07:16:49;;;;;;;;;;;24.90;65.10;;;;;;5029342;28;19940;-92
2022/07/22 07:19:14;;;;;;;;;;;24.80;64.40;;;;;;5030105;28;20265;-92
2022/07/22 07:21:40;;;;;;;;;;;24.60;63.10;;;;;;5016895;28;20076;-93
2022/07/22 07:24:06;;;;;;;;;;;24.30;62.40;;;;;;5018163;28;19924;-94
2022/07/22 07:26:31;;;;;;;;;;;24.00;62.10;;;;;;5010155;28;19931;-94
2022/07/22 07:29:00;;;;;;;;;;;23.80;62.90;;;;;;4996792;28;20029;-93
2022/07/22 07:31:26;;;;;;;;;;;23.70;63.30;;;;;;4996797;28;19957;-92
2022/07/22 07:33:51;;;;;;;;;;;23.60;63.70;;;;;;4996852;28;20032;-94
2022/07/22 07:36:17;;;;;;;;;;;23.50;63.70;;;;;;4996646;28;19910;-93
2022/07/22 07:38:42;;;;;;;;;;;23.40;63.70;;;;;;4997803;28;19925;-92
2022/07/22 07:41:08;;;;;;;;;;;23.30;64.10;;;;;;5001576;28;19914;-93
2022/07/22 07:43:34;;;;;;;;;;;23.20;64.20;;;;;;5000597;28;20004;-94
2022/07/22 07:46:09;;;;;;;;;;;23.20;64.40;;;;;;4999636;28;20005;-94
2022/07/22 07:48:34;;;;;;;;;;;23.20;64.60;;;;;;5000660;28;19925;-95
2022/07/22 07:51:00;;;;;;;;;;;23.30;64.80;;;;;;4998509;28;19914;-94
2022/07/22 07:53:26;;;;;;;;;;;23.40;65.50;;;;;;4998685;28;19997;-93
2022/07/22 07:55:51;;;;;;;;;;;23.70;66.00;;;;;;4998200;28;19961;-94
2022/07/22 07:58:17;;;;;;;;;;;24.00;66.40;;;;;;4998479;28;20277;-93
2022/07/22 08:00:42;;;;;;;;;;;24.40;67.00;;;;;;4998579;28;20286;-93
2022/07/22 08:03:08;;;;;;;;;;;24.90;67.00;;;;;;4998902;28;19920;-95
2022/07/22 08:05:33;;;;;;;;;;;25.40;67.30;;;;;;4999129;28;19914;-95
2022/07/22 08:07:59;;;;;;;;;;;25.80;67.30;;;;;;4999279;28;19997;-92
2022/07/22 08:10:28;;;;;;;;;;;26.30;67.10;;;;;;4999413;28;19918;-95
2022/07/22 08:12:55;;;;;;;;;;;26.70;67.00;;;;;;4998341;28;19972;-94
2022/07/22 08:15:21;;;;;;;;;;;26.90;66.20;;;;;;4998656;28;19914;-95
2022/07/22 08:17:46;;;;;;;;;;;27.00;64.70;;;;;;4998228;28;20350;-94
2022/07/22 08:20:12;;;;;;;;;;;27.10;64.80;;;;;;4998194;28;20362;-94
2022/07/22 08:22:37;;;;;;;;;;;26.90;63.50;;;;;;4999524;28;19920;-95
2022/07/22 08:25:04;;;;;;;;;;;26.90;63.60;;;;;;4999152;28;19918;-94
2022/07/22 08:27:30;;;;;;;;;;;26.80;63.80;;;;;;4998313;28;19918;-95
2022/07/22 08:29:55;;;;;;;;;;;26.90;64.50;;;;;;4999896;28;20282;-95
2022/07/22 08:32:23;;;;;;;;;;;26.90;64.60;;;;;;5012623;28;19921;-94
2022/07/22 08:34:51;;;;;;;;;;;27.00;64.60;;;;;;5018540;28;19924;-92
2022/07/22 08:37:26;;;;;;;;;;;27.10;64.70;;;;;;5018748;28;20008;-93
2022/07/22 08:39:54;;;;;;;;;;;27.20;64.10;;;;;;5019002;28;20019;-93
2022/07/22 08:42:21;;;;;;;;;;;27.30;64.80;;;;;;5019720;28;19910;-94
2022/07/22 08:44:47;;;;;;;;;;;27.60;64.90;;;;;;5018214;28;19917;-94
2022/07/22 08:47:14;;;;;;;;;;;27.80;64.10;;;;;;5019467;28;19909;-93
2022/07/22 08:49:40;;;;;;;;;;;28.00;64.60;;;;;;5017651;28;19917;-94
2022/07/22 08:52:07;;;;;;;;;;;28.10;64.20;;;;;;5002211;28;19925;-93
2022/07/22 08:54:32;;;;;;;;;;;28.30;64.50;;;;;;5000430;28;19976;-92
2022/07/22 08:56:58;;;;;;;;;;;28.30;65.00;;;;;;4998250;28;19918;-94
2022/07/22 08:59:27;;;;;;;;;;;28.50;63.30;;;;;;4998995;28;19924;-94
2022/07/22 09:02:09;;;;;;;;;;;28.50;64.50;;;;;;5001771;28;20359;-94
2022/07/22 09:04:53;;;;;;;;;;;28.70;64.60;;;;;;5000811;28;19921;-94
2022/07/22 09:07:36;;;;;;;;;;;28.80;64.50;;;;;;4998347;28;19913;-94
2022/07/22 09:10:04;;;;;;;;;;;29.00;63.80;;;;;;4999952;28;20025;-94
2022/07/22 09:12:31;;;;;;;;;;;29.20;63.70;;;;;;5001835;28;19961;-95
2022/07/22 09:14:59;;;;;;;;;;;29.30;63.80;;;;;;4999119;28;19977;-94
2022/07/22 09:17:29;;;;;;;;;;;29.40;64.50;;;;;;4998306;28;19945;-95
2022/07/22 09:19:56;;;;;;;;;;;29.50;64.50;;;;;;4997743;28;19918;-95
2022/07/22 09:22:33;;;;;;;;;;;29.60;64.60;;;;;;4997240;28;19984;-94
2022/07/22 09:28:04;;;;;;;;;;;29.80;62.80;;;;;;5018654;28;19920;-96
2022/07/22 09:30:30;;;;;;;;;;;29.80;63.10;;;;;;5023523;28;19974;-94
2022/07/22 09:32:56;;;;;;;;;;;29.80;63.20;;;;;;5037311;28;19913;-94
2022/07/22 09:35:22;;;;;;;;;;;29.80;60.90;;;;;;5030738;28;19917;-94
2022/07/22 09:37:52;;;;;;;;;;;29.70;60.60;;;;;;5030613;28;20407;-94
2022/07/22 09:40:19;;;;;;;;;;;29.60;60.20;;;;;;5031752;28;19913;-95
2022/07/22 09:42:46;;;;;;;;;;;29.60;60.80;;;;;;5017090;28;19918;-92
2022/07/22 09:45:11;;;;;;;;;;;29.80;60.00;;;;;;5018797;28;19921;-92
2022/07/22 09:47:40;;;;;;;;;;;29.80;61.70;;;;;;5006421;28;20039;-93
2022/07/22 09:50:17;;;;;;;;;;;30.10;62.70;;;;;;5005692;28;20372;-93
2022/07/22 09:52:43;;;;;;;;;;;30.20;62.90;;;;;;5035571;28;19917;-94
2022/07/22 09:55:08;;;;;;;;;;;30.20;60.80;;;;;;5006391;28;19922;-93
2022/07/22 09:57:37;;;;;;;;;;;30.20;61.50;;;;;;5029243;28;20429;-93
2022/07/22 10:00:03;;;;;;;;;;;30.10;61.60;;;;;;5037147;28;19972;-94
2022/07/22 10:02:29;;;;;;;;;;;29.90;60.90;;;;;;5038337;28;20381;-93
2022/07/22 10:04:58;;;;;;;;;;;29.80;60.90;;;;;;5035899;28;19917;-94
2022/07/22 10:07:24;;;;;;;;;;;29.70;60.90;;;;;;5030603;28;19924;-95
2022/07/22 10:09:50;;;;;;;;;;;29.60;61.10;;;;;;5037163;28;20367;-94
2022/07/22 10:12:15;;;;;;;;;;;29.50;61.10;;;;;;5037725;28;19928;-94
2022/07/22 10:14:42;;;;;;;;;;;29.50;61.70;;;;;;5037327;28;19949;-94
2022/07/22 10:17:08;;;;;;;;;;;29.50;61.60;;;;;;5035870;28;19918;-94
2022/07/22 10:19:33;;;;;;;;;;;29.70;62.40;;;;;;5036507;28;19917;-95
2022/07/22 10:22:00;;;;;;;;;;;29.80;61.10;;;;;;5036315;28;19917;-94
2022/07/22 10:24:26;;;;;;;;;;;30.10;61.70;;;;;;5035894;28;20277;-96
2022/07/22 10:26:53;;;;;;;;;;;30.30;62.50;;;;;;5014486;28;19917;-94
2022/07/22 10:29:37;;;;;;;;;;;30.50;61.40;;;;;;4998519;28;20004;-94
2022/07/22 10:32:15;;;;;;;;;;;30.70;61.90;;;;;;5033752;28;19956;-94
2022/07/22 10:35:01;;;;;;;;;;;30.80;60.00;;;;;;5036167;28;19909;-94
2022/07/22 10:37:38;;;;;;;;;;;30.80;61.30;;;;;;5011188;28;19941;-93
2022/07/22 10:40:11;;;;;;;;;;;30.80;61.40;;;;;;4997150;28;20362;-95
2022/07/22 10:42:56;;;;;;;;;;;30.80;60.40;;;;;;4999249;28;19925;-94
2022/07/22 10:45:22;;;;;;;;;;;30.70;60.20;;;;;;5000728;28;19917;-94
2022/07/22 10:48:09;;;;;;;;;;;30.50;60.30;;;;;;4992554;28;20135;-95
2022/07/22 10:50:35;;;;;;;;;;;30.50;60.10;;;;;;5001443;28;19910;-95
2022/07/22 10:53:01;;;;;;;;;;;30.30;60.10;;;;;;5000544;28;19925;-94
2022/07/22 10:55:27;;;;;;;;;;;30.30;60.10;;;;;;5000354;28;19918;-94
2022/07/22 10:57:52;;;;;;;;;;;30.20;60.10;;;;;;4999809;28;19917;-95
2022/07/22 11:00:18;;;;;;;;;;;30.10;59.50;;;;;;4997822;28;19922;-94
2022/07/22 11:02:44;;;;;;;;;;;30.00;59.80;;;;;;5001475;28;19910;-93
2022/07/22 11:05:18;;;;;;;;;;;30.00;60.00;;;;;;5000284;28;19921;-94
2022/07/22 11:07:44;;;;;;;;;;;29.90;59.30;;;;;;5000130;28;19905;-95
2022/07/22 11:10:14;;;;;;;;;;;29.80;59.40;;;;;;4997287;28;19936;-94
2022/07/22 11:12:39;;;;;;;;;;;29.80;59.60;;;;;;4997292;28;19914;-94
2022/07/22 11:15:27;;;;;;;;;;;29.70;59.50;;;;;;4999691;28;19910;-94
2022/07/22 11:18:03;;;;;;;;;;;29.70;59.70;;;;;;5000955;28;19914;-95
2022/07/22 11:20:29;;;;;;;;;;;29.60;59.20;;;;;;5000930;28;20389;-94
2022/07/22 11:22:56;;;;;;;;;;;29.60;59.40;;;;;;5000006;28;19910;-94
2022/07/22 11:25:25;;;;;;;;;;;29.60;60.10;;;;;;5002565;28;19918;-96
2022/07/22 11:28:00;;;;;;;;;;;29.60;60.50;;;;;;5001439;28;19920;-95
2022/07/22 11:30:26;;;;;;;;;;;29.60;60.50;;;;;;5001843;28;19922;-94
2022/07/22 11:32:55;;;;;;;;;;;29.60;59.80;;;;;;5002121;28;19921;-95
2022/07/22 11:35:20;;;;;;;;;;;29.60;60.00;;;;;;5000973;28;19917;-95
2022/07/22 11:41:23;;;;;;;;;;;29.50;58.80;;;;;;5018924;28;19913;-94
2022/07/22 11:43:49;;;;;;;;;;;29.40;59.20;;;;;;5014026;28;20384;-95
2022/07/22 11:46:25;;;;;;;;;;;29.40;59.70;;;;;;5021526;28;19909;-93
2022/07/22 11:48:51;;;;;;;;;;;29.40;59.40;;;;;;5023152;28;19971;-96
2022/07/22 11:51:17;;;;;;;;;;;29.50;59.20;;;;;;5023577;28;19913;-95
2022/07/22 11:53:46;;;;;;;;;;;29.70;59.40;;;;;;5024185;28;19943;-95
2022/07/22 11:56:24;;;;;;;;;;;;;;;;;;;;;
2022/07/22 11:58:55;;;;;;;;;;;29.80;59.10;;;;;;5038162;28;20004;-94
2022/07/22 12:04:25;;;;;;;;;;;30.10;56.00;;;;;;4942325;29;19919;-95
2022/07/22 12:06:53;;;;;;;;;;;30.20;55.80;;;;;;5003529;28;19955;-95
2022/07/22 12:09:19;;;;;;;;;;;30.30;54.10;;;;;;5023416;28;19979;-94
2022/07/22 12:11:45;;;;;;;;;;;30.50;54.90;;;;;;5023237;28;19913;-96
2022/07/22 12:14:13;;;;;;;;;;;30.70;54.40;;;;;;5023635;28;19914;-95
2022/07/22 12:16:39;;;;;;;;;;;30.80;54.30;;;;;;5023373;28;19940;-94
2022/07/22 12:19:21;;;;;;;;;;;31.00;56.10;;;;;;5023148;28;19909;-95
2022/07/22 12:22:12;;;;;;;;;;;31.20;56.60;;;;;;5024199;28;19917;-95
2022/07/22 12:24:38;;;;;;;;;;;31.50;55.80;;;;;;5017668;28;19917;-93
2022/07/22 12:27:05;;;;;;;;;;;31.80;54.30;;;;;;5023870;28;20016;-94
2022/07/22 12:29:49;;;;;;;;;;;32.00;54.90;;;;;;5024209;28;19967;-95
2022/07/22 12:35:24;;;;;;;;;;;32.30;54.00;;;;;;5042538;28;19932;-96
2022/07/22 12:37:50;;;;;;;;;;;32.30;53.70;;;;;;5024957;28;19980;-94
2022/07/22 12:40:18;;;;;;;;;;;32.30;52.70;;;;;;5025480;28;19956;-95
2022/07/22 12:43:00;;;;;;;;;;;32.20;54.40;;;;;;5026439;28;19909;-95
2022/07/22 12:45:28;;;;;;;;;;;32.20;53.60;;;;;;5024565;28;19957;-95
2022/07/22 12:57:03;;;;;;;;;;;32.10;52.10;;;;;;5042233;28;19924;-95
2022/07/22 12:59:32;;;;;;;;;;;32.20;50.70;;;;;;5024503;28;20254;-93
2022/07/22 13:02:31;;;;;;;;;;;32.20;51.10;;;;;;5024916;28;19923;-93
2022/07/22 13:04:57;;;;;;;;;;;32.20;52.30;;;;;;5025091;28;19910;-94
2022/07/22 13:07:25;;;;;;;;;;;32.20;53.00;;;;;;5025908;28;19959;-94
2022/07/22 13:10:12;;;;;;;;;;;32.20;53.10;;;;;;5025655;28;19917;-95
2022/07/22 13:12:49;;;;;;;;;;;32.20;54.10;;;;;;5025626;28;20276;-95
2022/07/22 13:15:14;;;;;;;;;;;32.20;53.20;;;;;;4981109;28;20449;-96
2022/07/22 13:17:40;;;;;;;;;;;32.10;51.50;;;;;;4965967;28;19917;-95
2022/07/22 13:20:07;;;;;;;;;;;32.00;49.30;;;;;;4967494;28;19910;-95
2022/07/22 13:22:32;;;;;;;;;;;31.80;48.60;;;;;;4966244;28;20780;-94
2022/07/22 13:25:17;;;;;;;;;;;31.60;48.20;;;;;;4967049;28;19993;-95
2022/07/22 13:27:43;;;;;;;;;;;31.50;47.70;;;;;;4966256;28;19918;-94
2022/07/22 13:30:08;;;;;;;;;;;31.30;49.00;;;;;;4966165;28;19915;-94
2022/07/22 13:32:34;;;;;;;;;;;31.30;49.20;;;;;;4966945;28;19929;-94
2022/07/22 13:34:59;;;;;;;;;;;31.20;48.30;;;;;;4965437;28;19910;-95
2022/07/22 13:37:25;;;;;;;;;;;31.20;48.10;;;;;;4967312;28;19917;-93
2022/07/22 13:39:51;;;;;;;;;;;31.10;48.70;;;;;;4988287;28;20012;-94
2022/07/22 13:42:18;;;;;;;;;;;31.10;49.60;;;;;;5023398;28;19952;-94
2022/07/22 13:44:44;;;;;;;;;;;31.10;48.60;;;;;;5021793;28;19967;-94
2022/07/22 13:47:10;;;;;;;;;;;31.00;48.30;;;;;;5020653;28;19893;-96
2022/07/22 13:49:35;;;;;;;;;;;30.90;49.60;;;;;;5021517;28;19916;-94
2022/07/22 13:52:01;;;;;;;;;;;30.90;50.30;;;;;;5020139;28;19977;-96
2022/07/22 13:54:27;;;;;;;;;;;31.00;51.10;;;;;;5023119;28;19917;-95
2022/07/22 13:56:53;;;;;;;;;;;31.10;51.10;;;;;;5024156;28;19916;-95
2022/07/22 13:59:18;;;;;;;;;;;31.20;50.60;;;;;;5023520;28;19921;-96
2022/07/22 14:01:44;;;;;;;;;;;31.20;50.80;;;;;;5009054;28;20278;-96
2022/07/22 14:04:09;;;;;;;;;;;31.30;50.80;;;;;;5028183;28;19925;-94
2022/07/22 14:06:35;;;;;;;;;;;31.40;48.60;;;;;;5022361;28;19909;-94
2022/07/22 14:09:01;;;;;;;;;;;31.30;49.30;;;;;;5024943;28;19917;-95
2022/07/22 14:11:29;;;;;;;;;;;31.40;49.80;;;;;;5027718;28;19917;-94
2022/07/22 14:13:55;;;;;;;;;;;31.30;48.50;;;;;;5005496;28;19933;-96
2022/07/22 14:16:36;;;;;;;;;;;31.30;47.80;;;;;;5027589;28;19913;-96
2022/07/22 14:19:03;;;;;;;;;;;31.20;47.50;;;;;;5023245;28;19916;-95
2022/07/22 14:21:32;;;;;;;;;;;31.10;47.40;;;;;;5021645;28;19921;-94
2022/07/22 14:23:57;;;;;;;;;;;31.00;48.40;;;;;;5030671;28;19956;-94
2022/07/22 14:26:23;;;;;;;;;;;31.00;49.20;;;;;;5024064;28;19918;-92
2022/07/22 14:28:53;;;;;;;;;;;31.00;49.20;;;;;;5023039;28;19923;-94
2022/07/22 14:31:20;;;;;;;;;;;31.00;49.40;;;;;;5004054;28;19908;-93
2022/07/22 14:33:46;;;;;;;;;;;31.00;47.80;;;;;;5023810;28;20289;-94
2022/07/22 14:36:22;;;;;;;;;;;30.80;48.50;;;;;;5020021;28;19909;-94
2022/07/22 14:38:49;;;;;;;;;;;30.80;48.60;;;;;;5033444;28;19917;-92
2022/07/22 14:41:18;;;;;;;;;;;30.80;48.90;;;;;;5019893;28;19916;-93
2022/07/22 14:43:47;;;;;;;;;;;30.70;48.90;;;;;;5022345;28;19920;-92
2022/07/22 14:46:41;;;;;;;;;;;30.70;48.80;;;;;;5024402;28;19976;-95
2022/07/22 14:49:29;;;;;;;;;;;30.70;49.10;;;;;;5025483;28;19913;-94
2022/07/22 14:51:55;;;;;;;;;;;30.70;49.30;;;;;;5025695;28;19956;-92
2022/07/22 14:54:41;;;;;;;;;;;30.70;49.60;;;;;;5026013;28;19913;-94
2022/07/22 14:57:07;;;;;;;;;;;30.70;49.50;;;;;;5046155;28;19924;-92